Time;durP1;ratioP1;P1;durP2;ratioP2;P2;SDS_P1;SDS_P2;PMS_P1;PMS_P2;Temp;Humidity;BMP_temperature;BMP_pressure;BME280_temperature;BME280_humidity;BME280_pressure;Samples;Min_cycle;Max_cycle;Signal;HPM_P1;HPM_P2
2022/10/15 00:02:21;;;;;;;26.35;20.60;;;;;;;12.55;100.00;100672.19;5242238;28;20569;-72
2022/10/15 00:04:52;;;;;;;22.48;19.30;;;;;;;12.52;100.00;100669.03;5248058;28;20485;-73
2022/10/15 00:07:24;;;;;;;25.48;21.13;;;;;;;12.54;100.00;100669.69;5241510;28;20034;-72
2022/10/15 00:09:55;;;;;;;27.38;21.75;;;;;;;12.58;100.00;100677.16;5245602;28;20033;-72
2022/10/15 00:12:26;;;;;;;27.40;22.48;;;;;;;12.60;100.00;100667.31;5240970;28;20030;-72
2022/10/15 00:14:57;;;;;;;29.15;23.33;;;;;;;12.65;100.00;100670.34;5245176;28;20040;-72
2022/10/15 00:17:29;;;;;;;24.88;21.40;;;;;;;12.66;100.00;100671.16;5243998;28;20021;-72
2022/10/15 00:20:02;;;;;;;27.73;23.02;;;;;;;12.73;100.00;100671.38;5240912;28;20021;-72
2022/10/15 00:22:33;;;;;;;28.77;23.20;;;;;;;12.78;100.00;100677.03;5242590;28;20021;-72
2022/10/15 00:25:05;;;;;;;28.02;22.10;;;;;;;12.78;100.00;100677.84;5242643;28;20056;-72
2022/10/15 00:27:37;;;;;;;28.30;22.30;;;;;;;12.86;100.00;100671.84;5245418;28;20029;-72
2022/10/15 00:30:09;;;;;;;26.80;22.63;;;;;;;12.84;100.00;100671.16;5245672;28;20788;-73
2022/10/15 00:32:40;;;;;;;26.55;22.08;;;;;;;12.86;100.00;100671.84;5242782;28;20021;-72
2022/10/15 00:35:11;;;;;;;28.77;23.02;;;;;;;12.89;100.00;100677.66;5241835;28;20036;-73
2022/10/15 00:37:43;;;;;;;25.23;21.58;;;;;;;12.90;100.00;100678.47;5243502;28;20017;-72
2022/10/15 00:40:14;;;;;;;24.17;21.58;;;;;;;12.94;100.00;100677.19;5241325;28;20033;-72
2022/10/15 00:42:46;;;;;;;24.35;21.65;;;;;;;12.94;100.00;100671.09;5240011;28;20071;-72
2022/10/15 00:45:17;;;;;;;24.35;21.50;;;;;;;12.98;100.00;100680.34;5247668;28;20076;-72
2022/10/15 00:47:50;;;;;;;28.73;21.40;;;;;;;13.01;100.00;100685.31;5243828;28;20013;-73
2022/10/15 00:50:25;;;;;;;25.15;20.50;;;;;;;13.07;100.00;100685.56;5243695;28;20021;-72
2022/10/15 00:52:58;;;;;;;23.58;20.88;;;;;;;13.03;100.00;100684.19;5246373;28;20021;-73
2022/10/15 00:55:37;;;;;;;25.75;21.60;;;;;;;13.12;100.00;100685.09;5244280;28;20608;-72
2022/10/15 00:58:14;;;;;;;22.38;20.00;;;;;;;13.09;100.00;100682.75;5242345;28;20401;-72
2022/10/15 01:00:45;;;;;;;28.13;21.30;;;;;;;13.05;100.00;100681.41;5245513;28;20566;-72
2022/10/15 01:03:16;;;;;;;23.73;21.15;;;;;;;13.08;100.00;100684.56;5227792;28;20104;-72
2022/10/15 01:05:50;;;;;;;27.05;21.65;;;;;;;13.10;100.00;100682.59;5243787;28;20039;-72
2022/10/15 01:08:22;;;;;;;23.05;20.17;;;;;;;13.07;100.00;100679.47;5243141;28;20542;-72
2022/10/15 01:11:18;;;;;;;24.45;20.55;;;;;;;13.21;100.00;100680.72;5242054;28;20119;-73
2022/10/15 01:13:57;;;;;;;23.52;21.02;;;;;;;13.25;100.00;100682.09;5242826;28;20024;-72
2022/10/15 01:16:43;;;;;;;23.05;20.17;;;;;;;13.26;100.00;100673.22;5243263;28;20040;-73
2022/10/15 01:19:26;;;;;;;24.58;20.65;;;;;;;13.31;100.00;100658.66;5245378;28;20029;-72
2022/10/15 01:22:35;;;;;;;23.52;21.02;;;;;;;13.51;100.00;100661.91;5242401;28;20044;-72
2022/10/15 01:25:33;;;;;;;22.27;19.88;;;;;;;13.44;100.00;100657.41;5198799;28;20525;-72
2022/10/15 01:28:19;;;;;;;23.52;20.23;;;;;;;13.33;100.00;100666.38;5242726;28;20021;-72
2022/10/15 01:31:00;;;;;;;23.33;20.85;;;;;;;13.36;100.00;100653.75;5244208;28;20420;-73
2022/10/15 01:33:39;;;;;;;21.90;19.58;;;;;;;13.36;100.00;100639.78;5243730;28;20017;-72
2022/10/15 01:36:36;;;;;;;23.05;20.38;;;;;;;13.46;100.00;100643.16;5241087;28;20171;-72
2022/10/15 01:39:22;;;;;;;23.70;20.60;;;;;;;13.48;100.00;100637.72;5244614;28;20750;-72
2022/10/15 01:42:00;;;;;;;25.17;20.50;;;;;;;13.42;100.00;100640.97;5247749;28;20609;-72
2022/10/15 01:44:43;;;;;;;23.90;21.45;;;;;;;13.47;100.00;100643.97;5248774;28;20025;-72
2022/10/15 01:47:21;;;;;;;22.80;20.50;;;;;;;13.46;100.00;100642.31;5249572;28;20037;-72
2022/10/15 01:49:55;;;;;;;22.15;19.88;;;;;;;13.35;100.00;100635.50;5246521;28;20367;-72
2022/10/15 01:52:31;;;;;;;23.23;20.75;;;;;;;13.45;100.00;100643.28;5244831;28;20060;-72
2022/10/15 01:55:05;;;;;;;24.73;20.35;;;;;;;13.44;100.00;100639.00;5247403;28;20494;-72
2022/10/15 01:57:41;;;;;;;22.77;20.48;;;;;;;13.46;100.00;100637.06;5248254;28;20020;-72
2022/10/15 02:00:12;;;;;;;25.58;21.15;;;;;;;13.42;100.00;100633.09;5245649;28;20027;-72
2022/10/15 02:02:44;;;;;;;22.73;20.42;;;;;;;13.45;100.00;100630.13;5244776;28;20017;-74
2022/10/15 02:05:23;;;;;;;21.35;19.02;;;;;;;13.51;100.00;100622.44;5246502;28;20383;-72
2022/10/15 02:08:22;;;;;;;22.08;19.73;;;;;;;13.66;100.00;100625.34;5247878;28;20123;-72
2022/10/15 02:11:08;;;;;;;23.30;20.25;;;;;;;13.62;100.00;100629.25;5244070;28;20087;-72
2022/10/15 02:14:08;;;;;;;20.95;18.85;;;;;;;13.73;100.00;100631.63;5247931;28;20108;-72
2022/10/15 02:16:42;;;;;;;23.33;20.50;;;;;;;13.52;100.00;100621.44;5246846;28;20047;-72
2022/10/15 02:19:23;;;;;;;22.77;20.38;;;;;;;13.53;100.00;100617.03;5246423;28;20095;-73
2022/10/15 02:22:10;;;;;;;21.50;19.30;;;;;;;13.55;100.00;100620.31;5243833;28;20345;-72
2022/10/15 02:24:57;;;;;;;22.13;19.80;;;;;;;13.69;100.00;100624.22;5242609;28;20025;-72
2022/10/15 02:27:30;;;;;;;26.40;20.50;;;;;;;13.54;100.00;100613.41;5243689;28;20025;-72
2022/10/15 02:30:06;;;;;;;23.45;21.02;;;;;;;13.56;100.00;100617.56;5244854;28;20528;-73
2022/10/15 02:32:39;;;;;;;23.70;19.75;;;;;;;13.55;100.00;100609.78;5247590;28;20036;-72
2022/10/15 02:35:11;;;;;;;23.05;20.15;;;;;;;13.53;100.00;100604.69;5272960;22;20061;-74
2022/10/15 02:37:46;;;;;;;22.00;19.63;;;;;;;13.57;100.00;100600.78;5272314;28;20566;-74
2022/10/15 02:40:21;;;;;;;23.10;20.58;;;;;;;13.58;100.00;100588.44;5274365;28;20127;-74
2022/10/15 02:42:53;;;;;;;23.75;21.25;;;;;;;13.59;100.00;100584.81;5278880;28;20488;-74
2022/10/15 02:45:24;;;;;;;23.35;20.85;;;;;;;13.64;100.00;100585.19;5273756;28;20068;-74
2022/10/15 02:47:56;;;;;;;22.52;20.23;;;;;;;13.61;100.00;100581.06;5260978;28;20059;-74
2022/10/15 02:50:27;;;;;;;24.95;21.27;;;;;;;13.62;100.00;100579.25;5267776;28;20090;-74
2022/10/15 02:52:59;;;;;;;25.27;22.45;;;;;;;13.62;100.00;100572.16;5269777;28;20021;-74
2022/10/15 02:55:31;;;;;;;24.47;20.60;;;;;;;13.72;100.00;100574.69;5249940;28;20028;-74
2022/10/15 02:58:02;;;;;;;23.23;20.83;;;;;;;13.66;100.00;100572.69;5265367;28;20109;-74
2022/10/15 03:00:33;;;;;;;25.08;21.20;;;;;;;13.65;100.00;100563.16;5265085;28;20024;-74
2022/10/15 03:03:04;;;;;;;23.58;21.08;;;;;;;13.62;100.00;100550.28;5266909;28;20432;-74
2022/10/15 03:05:36;;;;;;;25.70;22.33;;;;;;;13.69;100.00;100561.84;5267235;28;20330;-74
2022/10/15 03:08:07;;;;;;;23.98;21.35;;;;;;;13.67;100.00;100558.53;5262382;28;20647;-74
2022/10/15 03:10:39;;;;;;;23.52;21.02;;;;;;;13.66;100.00;100556.88;5265464;28;20028;-74
2022/10/15 03:13:10;;;;;;;23.42;20.45;;;;;;;13.71;100.00;100564.31;5268429;28;20086;-74
2022/10/15 03:15:41;;;;;;;23.90;21.35;;;;;;;13.69;100.00;100553.94;5269736;28;20481;-74
2022/10/15 03:18:12;;;;;;;24.45;21.55;;;;;;;13.68;100.00;100557.56;5265975;28;20040;-74
2022/10/15 03:20:47;;;;;;;27.52;20.10;;;;;;;13.65;100.00;100563.16;5266076;28;20036;-74
2022/10/15 03:23:18;;;;;;;23.20;20.80;;;;;;;13.60;100.00;100557.53;5265240;28;20102;-74
2022/10/15 03:25:49;;;;;;;25.02;21.33;;;;;;;13.63;100.00;100563.28;5266270;28;20086;-74
2022/10/15 03:28:21;;;;;;;24.08;21.58;;;;;;;13.65;100.00;100568.41;5262830;28;20028;-74
2022/10/15 03:30:52;;;;;;;26.60;20.85;;;;;;;13.65;100.00;100567.59;5263585;28;20025;-74
2022/10/15 03:33:24;;;;;;;26.58;21.80;;;;;;;13.68;100.00;100568.09;5266228;28;20032;-74
2022/10/15 03:35:56;;;;;;;23.42;20.83;;;;;;;13.69;100.00;100572.38;5267342;28;20275;-74
2022/10/15 03:38:27;;;;;;;27.38;20.65;;;;;;;13.71;100.00;100573.03;5267441;28;20033;-74
2022/10/15 03:40:59;;;;;;;25.75;20.88;;;;;;;13.75;100.00;100561.22;5264618;28;20028;-74
2022/10/15 03:43:30;;;;;;;24.45;20.65;;;;;;;13.75;100.00;100558.59;5262410;28;20017;-74
2022/10/15 03:46:03;;;;;;;23.88;21.33;;;;;;;13.75;100.00;100558.59;5245575;28;20120;-74
2022/10/15 03:48:34;;;;;;;23.02;20.42;;;;;;;13.80;100.00;100556.31;5265420;28;20020;-74
2022/10/15 03:51:05;;;;;;;26.58;21.00;;;;;;;13.81;100.00;100557.94;5267341;28;20571;-74
2022/10/15 03:53:36;;;;;;;24.90;21.10;;;;;;;13.80;100.00;100551.03;5266611;28;20020;-74
2022/10/15 03:56:08;;;;;;;28.00;22.42;;;;;;;13.78;100.00;100558.25;5260843;28;20044;-74
2022/10/15 03:58:40;;;;;;;27.00;21.50;;;;;;;13.78;100.00;100555.63;5262563;28;20021;-74
2022/10/15 04:01:15;;;;;;;26.10;22.73;;;;;;;13.76;100.00;100551.53;5263176;28;20032;-74
2022/10/15 04:03:46;;;;;;;27.25;21.70;;;;;;;13.77;100.00;100558.44;5263814;28;20024;-74
2022/10/15 04:06:18;;;;;;;30.88;22.90;;;;;;;13.79;100.00;100559.94;5261618;28;20025;-74
2022/10/15 04:08:49;;;;;;;29.73;22.65;;;;;;;13.72;100.00;100547.56;5266683;28;20028;-74
2022/10/15 04:11:20;;;;;;;27.48;23.48;;;;;;;13.80;100.00;100558.13;5262112;28;20029;-74
2022/10/15 04:13:52;;;;;;;31.08;23.58;;;;;;;13.80;100.00;100564.19;5260886;28;20032;-74
2022/10/15 04:16:23;;;;;;;30.20;23.30;;;;;;;13.79;100.00;100559.94;5261808;28;20401;-74
2022/10/15 04:18:54;;;;;;;28.65;24.63;;;;;;;13.81;100.00;100552.69;5266713;28;20500;-74
2022/10/15 04:21:25;;;;;;;27.58;23.95;;;;;;;13.83;100.00;100556.00;5260446;28;20454;-74
2022/10/15 04:23:57;;;;;;;29.77;24.08;;;;;;;13.82;100.00;100556.13;5261902;28;20059;-74
2022/10/15 04:26:28;;;;;;;31.40;23.67;;;;;;;13.91;100.00;100567.53;5262410;28;20027;-74
2022/10/15 04:28:59;;;;;;;30.35;25.30;;;;;;;13.89;100.00;100572.94;5266379;28;20032;-74
2022/10/15 04:31:31;;;;;;;29.23;24.70;;;;;;;13.90;100.00;100561.44;5261607;28;20111;-74
2022/10/15 04:34:02;;;;;;;33.50;28.58;;;;;;;13.91;100.00;100560.47;5267786;28;20021;-74
2022/10/15 04:36:34;;;;;;;30.33;24.83;;;;;;;13.95;100.00;100559.16;5263804;28;20044;-74
2022/10/15 04:39:05;;;;;;;30.38;25.65;;;;;;;13.98;100.00;100556.22;5263441;28;20024;-74
2022/10/15 04:41:37;;;;;;;31.63;26.42;;;;;;;13.98;100.00;100552.72;5260019;28;20028;-74
2022/10/15 04:44:08;;;;;;;31.17;25.05;;;;;;;14.02;100.00;100556.72;5261757;28;20028;-74
2022/10/15 04:46:39;;;;;;;33.40;26.85;;;;;;;14.00;100.00;100554.22;5263342;28;20066;-74
2022/10/15 04:49:11;;;;;;;31.60;25.70;;;;;;;14.03;100.00;100559.19;5262048;28;20074;-74
2022/10/15 04:51:42;;;;;;;33.30;26.15;;;;;;;14.06;100.00;100552.78;5263308;28;20032;-74
2022/10/15 04:54:14;;;;;;;29.90;25.90;;;;;;;14.09;100.00;100550.66;5263364;28;20028;-74
2022/10/15 04:56:45;;;;;;;31.65;25.95;;;;;;;14.09;100.00;100548.03;5265897;28;20086;-75
2022/10/15 04:59:16;;;;;;;33.30;26.38;;;;;;;14.07;100.00;100544.72;5266776;28;20126;-74
2022/10/15 05:01:47;;;;;;;31.15;26.02;;;;;;;14.13;100.00;100545.91;5264277;28;20107;-74
2022/10/15 05:04:19;;;;;;;32.58;27.23;;;;;;;14.11;100.00;100553.94;5264212;28;20077;-74
2022/10/15 05:06:50;;;;;;;33.03;27.10;;;;;;;14.11;100.00;100548.66;5265450;28;20017;-74
2022/10/15 05:09:21;;;;;;;33.28;26.13;;;;;;;14.11;100.00;100548.66;5248007;28;20115;-74
2022/10/15 05:11:54;;;;;;;28.70;23.95;;;;;;;14.16;100.00;100550.00;5253365;28;20025;-74
2022/10/15 05:14:25;;;;;;;;;;;;;;;14.72;100.00;100551.13;5267232;28;20028;-74
2022/10/15 05:16:57;;;;;;;29.20;24.63;;;;;;;14.18;100.00;100556.78;5271881;28;19961;-74
2022/10/15 05:19:28;;;;;;;28.65;24.63;;;;;;;14.14;100.00;100552.00;5264813;28;20025;-74
2022/10/15 05:21:59;;;;;;;26.50;22.60;;;;;;;14.08;100.00;100556.88;5251744;28;20028;-74
2022/10/15 05:24:30;;;;;;;26.48;23.67;;;;;;;14.07;100.00;100555.25;5268691;28;20020;-74
2022/10/15 05:27:02;;;;;;;27.83;24.83;;;;;;;14.09;100.00;100555.06;5272938;28;20070;-74
2022/10/15 05:29:33;;;;;;;28.15;25.15;;;;;;;14.06;100.00;100564.16;5264929;28;20017;-74
2022/10/15 05:32:05;;;;;;;27.58;24.58;;;;;;;14.03;100.00;100559.19;5268190;28;20031;-74
2022/10/15 05:34:36;;;;;;;30.85;24.77;;;;;;;14.02;100.00;100565.44;5272129;28;20017;-74
2022/10/15 05:37:07;;;;;;;30.10;23.88;;;;;;;14.05;100.00;100566.91;5268965;28;20478;-74
2022/10/15 05:39:39;;;;;;;29.60;25.90;;;;;;;13.99;100.00;100559.69;5266378;28;20405;-74
2022/10/15 05:42:10;;;;;;;29.45;23.50;;;;;;;14.01;100.00;100555.06;5271497;28;20539;-74
2022/10/15 05:44:41;;;;;;;28.35;24.42;;;;;;;14.01;100.00;100553.25;5269078;28;20025;-74
2022/10/15 05:47:13;;;;;;;31.17;24.85;;;;;;;14.00;100.00;100551.59;5265094;28;20020;-74
2022/10/15 05:49:44;;;;;;;29.70;26.48;;;;;;;14.01;100.00;100547.16;5261145;28;20033;-74
2022/10/15 05:52:15;;;;;;;29.85;25.98;;;;;;;14.03;100.00;100547.84;5266780;28;20615;-74
2022/10/15 05:54:47;;;;;;;28.23;23.55;;;;;;;14.02;100.00;100543.56;5268755;28;20020;-74
2022/10/15 05:57:18;;;;;;;28.33;24.95;;;;;;;14.04;100.00;100555.56;5270884;28;20036;-74
2022/10/15 05:59:49;;;;;;;28.10;24.63;;;;;;;14.03;100.00;100551.28;5265389;28;20438;-74
2022/10/15 06:02:20;;;;;;;28.77;24.90;;;;;;;14.03;100.00;100546.03;5260296;28;20032;-74
2022/10/15 06:04:52;;;;;;;28.20;23.95;;;;;;;14.06;100.00;100552.78;5266590;28;20028;-73
2022/10/15 06:07:23;;;;;;;33.15;26.08;;;;;;;14.06;100.00;100550.97;5269280;28;20433;-73
2022/10/15 06:09:54;;;;;;;26.92;23.77;;;;;;;14.07;100.00;100551.78;5262740;28;20017;-74
2022/10/15 06:12:26;;;;;;;27.90;24.40;;;;;;;14.05;100.00;100553.75;5266815;28;20446;-73
2022/10/15 06:14:57;;;;;;;30.13;24.20;;;;;;;14.07;100.00;100555.25;5268620;28;20027;-73
2022/10/15 06:17:28;;;;;;;29.85;24.80;;;;;;;14.04;100.00;100547.66;5268429;28;20347;-74
2022/10/15 06:19:59;;;;;;;28.65;24.25;;;;;;;14.05;100.00;100551.13;5266897;28;20028;-74
2022/10/15 06:22:31;;;;;;;28.73;24.25;;;;;;;14.06;100.00;100553.59;5271190;28;20025;-74
2022/10/15 06:25:02;;;;;;;29.25;25.98;;;;;;;14.07;100.00;100557.06;5266647;28;20025;-73
2022/10/15 06:27:33;;;;;;;29.58;24.45;;;;;;;14.04;100.00;100550.28;5265048;28;20020;-74
2022/10/15 06:30:05;;;;;;;27.45;24.33;;;;;;;14.06;100.00;100550.16;5267034;28;20063;-74
2022/10/15 06:32:37;;;;;;;29.77;25.52;;;;;;;14.10;100.00;100548.84;5266218;28;20485;-74
2022/10/15 06:35:08;;;;;;;31.80;26.98;;;;;;;14.08;100.00;100550.81;5267855;28;20285;-74
2022/10/15 06:37:39;;;;;;;31.08;25.63;;;;;;;14.10;100.00;100548.84;5268789;28;20017;-74
2022/10/15 06:40:11;;;;;;;29.65;25.52;;;;;;;14.06;100.00;100544.88;5267088;28;20028;-74
2022/10/15 06:42:43;;;;;;;33.25;26.20;;;;;;;14.06;100.00;100550.97;5268519;28;20492;-74
2022/10/15 06:45:14;;;;;;;32.05;27.58;;;;;;;14.09;100.00;100544.53;5270423;28;20044;-74
2022/10/15 06:47:45;;;;;;;34.97;29.08;;;;;;;14.09;100.00;100544.53;5264519;28;20017;-74
2022/10/15 06:50:17;;;;;;;35.83;27.95;;;;;;;14.05;100.00;100540.56;5267262;28;20029;-74
2022/10/15 06:52:48;;;;;;;33.80;28.40;;;;;;;14.01;100.00;100537.44;5268064;28;20030;-74
2022/10/15 06:55:19;;;;;;;34.47;26.65;;;;;;;14.03;100.00;100548.66;5269440;28;20401;-74
2022/10/15 06:57:50;;;;;;;35.72;27.58;;;;;;;14.05;100.00;100548.47;5272615;28;20404;-75
2022/10/15 07:00:23;;;;;;;32.17;26.80;;;;;;;14.04;100.00;100557.38;5262841;28;20050;-75
2022/10/15 07:02:54;;;;;;;33.55;26.63;;;;;;;14.07;100.00;100547.34;5264022;28;20557;-75
2022/10/15 07:05:25;;;;;;;32.60;27.23;;;;;;;14.05;100.00;100545.84;5271893;28;20063;-75
2022/10/15 07:07:57;;;;;;;32.80;26.98;;;;;;;14.02;100.00;100557.56;5246995;28;20035;-75
2022/10/15 07:10:29;;;;;;;27.50;24.50;;;;;;;14.01;100.00;100560.31;5263551;28;20033;-75
2022/10/15 07:13:00;;;;;;;30.85;24.48;;;;;;;14.00;100.00;100563.94;5269357;28;20442;-75
2022/10/15 07:15:32;;;;;;;29.20;25.85;;;;;;;13.99;100.00;100559.69;5267703;28;20469;-75
2022/10/15 07:18:04;;;;;;;30.58;24.75;;;;;;;14.01;100.00;100565.59;5265802;28;20463;-75
2022/10/15 07:20:35;;;;;;;28.30;23.52;;;;;;;14.00;100.00;100550.78;5268257;28;20021;-75
2022/10/15 07:23:06;;;;;;;30.48;23.52;;;;;;;14.08;100.00;100548.16;5270703;28;20039;-75
2022/10/15 07:25:38;;;;;;;28.33;22.90;;;;;;;14.14;100.00;100537.00;5268190;28;20027;-75
2022/10/15 07:28:09;;;;;;;27.10;22.77;;;;;;;14.21;100.00;100535.38;5266937;28;20060;-75
2022/10/15 07:30:40;;;;;;;26.45;23.55;;;;;;;14.28;100.00;100536.38;5249823;28;20066;-75
2022/10/15 07:33:11;;;;;;;30.27;21.80;;;;;;;14.34;100.00;100521.72;5264574;28;20028;-75
2022/10/15 07:35:43;;;;;;;25.40;22.45;;;;;;;14.36;100.00;100525.03;5262436;28;20036;-75
2022/10/15 07:38:14;;;;;;;25.27;20.58;;;;;;;14.38;100.00;100519.59;5263826;28;20028;-75
2022/10/15 07:40:46;;;;;;;24.77;22.05;;;;;;;14.33;100.00;100515.63;5264792;28;20108;-75
2022/10/15 07:43:17;;;;;;;23.92;20.35;;;;;;;14.38;100.00;100524.84;5261397;28;20025;-75
2022/10/15 07:45:49;;;;;;;25.73;19.77;;;;;;;14.36;100.00;100519.75;5261439;28;20024;-75
2022/10/15 07:48:21;;;;;;;21.73;19.45;;;;;;;14.39;100.00;100521.22;5266616;28;20363;-76
2022/10/15 07:50:58;;;;;;;22.42;19.85;;;;;;;14.51;100.00;100510.25;5264494;28;20079;-75
2022/10/15 07:53:29;;;;;;;22.35;19.65;;;;;;;14.48;100.00;100515.00;5264761;28;20020;-75
2022/10/15 07:56:05;;;;;;;24.13;20.60;;;;;;;14.55;100.00;100508.94;5267076;28;20033;-75
2022/10/15 07:58:38;;;;;;;21.90;19.60;;;;;;;14.61;100.00;100510.06;5263196;28;20120;-75
2022/10/15 08:01:09;;;;;;;21.92;18.83;;;;;;;14.62;100.00;100501.16;5243837;28;20106;-75
2022/10/15 08:03:41;;;;;;;22.27;18.02;;;;;;;14.72;100.00;100504.47;5265843;28;20025;-75
2022/10/15 08:06:12;;;;;;;20.92;17.25;;;;;;;14.79;100.00;100505.47;5265538;28;20056;-76
2022/10/15 08:08:43;;;;;;;21.00;17.25;;;;;;;14.80;100.00;100493.91;5265200;28;20546;-75
2022/10/15 08:11:16;;;;;;;16.90;15.07;;;;;;;14.92;100.00;100496.22;5259060;28;20127;-75
2022/10/15 08:13:48;;;;;;;18.30;14.60;;;;;;;14.96;100.00;100494.88;5270618;28;20059;-76
2022/10/15 08:16:19;;;;;;;16.05;13.75;;;;;;;15.00;100.00;100478.59;5261789;28;20020;-75
2022/10/15 08:18:50;;;;;;;15.95;13.45;;;;;;;15.04;100.00;100494.91;5265233;28;20035;-76
2022/10/15 08:21:22;;;;;;;16.10;14.40;;;;;;;15.12;100.00;100484.31;5264434;28;20556;-76
2022/10/15 08:23:53;;;;;;;13.70;12.13;;;;;;;15.23;100.00;100489.25;5262029;28;20417;-75
2022/10/15 08:26:25;;;;;;;13.15;11.30;;;;;;;15.26;100.00;100485.44;5252436;28;20508;-75
2022/10/15 08:28:56;;;;;;;12.32;11.00;;;;;;;15.31;100.00;100486.59;5263882;28;20032;-76
2022/10/15 08:31:27;;;;;;;12.48;10.52;;;;;;;15.36;100.00;100495.81;5267009;28;20020;-76
2022/10/15 08:34:00;;;;;;;9.75;8.55;;;;;;;15.40;100.00;100489.19;5268257;28;20021;-76
2022/10/15 08:36:31;;;;;;;10.68;8.85;;;;;;;15.43;100.00;100488.84;5280829;22;20078;-73
2022/10/15 08:39:06;;;;;;;10.63;9.05;;;;;;;15.46;100.00;100489.34;5253131;28;20422;-73
2022/10/15 08:41:46;;;;;;;8.60;7.70;;;;;;;15.56;100.00;100481.19;5255347;28;20031;-73
2022/10/15 08:44:27;;;;;;;8.50;7.32;;;;;;;15.65;100.00;100467.03;5256818;28;20057;-73
2022/10/15 08:47:07;;;;;;;9.77;7.60;;;;;;;15.67;100.00;100475.56;5256767;28;20055;-73
2022/10/15 08:49:49;;;;;;;9.73;6.45;;;;;;;15.79;100.00;100474.19;5255327;28;20025;-73
2022/10/15 08:52:24;;;;;;;7.82;5.97;;;;;;;15.74;100.00;100465.97;5255861;28;20032;-73
2022/10/15 08:55:00;;;;;;;10.07;6.18;;;;;;;15.74;100.00;100465.97;5257941;28;20021;-73
2022/10/15 08:57:59;;;;;;;6.22;5.57;;;;;;;15.82;100.00;100460.63;5256425;28;20614;-73
2022/10/15 09:00:42;;;;;;;6.25;5.32;;;;;;;15.90;100.00;100453.66;5257505;28;20029;-73
2022/10/15 09:03:34;;;;;;;6.82;5.95;;;;;;;15.98;100.00;100451.78;5239739;28;20115;-73
2022/10/15 09:06:29;;;;;;;6.95;5.75;;;;;;;16.02;100.00;100439.06;5255429;28;20422;-73
2022/10/15 09:09:39;;;;;;;6.40;5.70;;;;;;;16.09;100.00;100440.00;5256613;28;20163;-73
2022/10/15 09:12:39;;;;;;;7.18;6.20;;;;;;;16.08;100.00;100437.53;5256293;28;20028;-73
2022/10/15 09:15:17;;;;;;;6.53;5.63;;;;;;;16.00;100.00;100441.06;5256783;28;20013;-73
2022/10/15 09:17:51;;;;;;;7.70;5.82;;;;;;;15.96;100.00;100443.22;5257003;28;20413;-73
2022/10/15 09:20:28;;;;;;;8.25;6.18;;;;;;;15.98;100.00;100443.84;5255939;28;20040;-73
2022/10/15 09:22:59;;;;;;;5.68;5.07;;;;;;;15.98;100.00;100440.41;5255887;28;20024;-73
2022/10/15 09:25:36;;;;;;;7.13;5.60;;;;;;;16.04;100.00;100434.44;5257252;28;20493;-73
2022/10/15 09:28:16;;;;;;;8.65;4.90;;;;;;;16.12;100.00;100444.13;5254977;28;20033;-73
2022/10/15 09:30:51;;;;;;;5.80;4.78;;;;;;;16.09;100.00;100445.28;5257023;28;20496;-73
2022/10/15 09:33:36;;;;;;;5.93;4.53;;;;;;;16.09;100.00;100445.28;5257395;28;20032;-73
2022/10/15 09:36:26;;;;;;;5.68;4.65;;;;;;;16.06;100.00;100440.34;5256656;28;20052;-73
2022/10/15 09:39:03;;;;;;;5.55;4.28;;;;;;;16.16;100.00;100440.94;5253986;28;20037;-73
2022/10/15 09:41:52;;;;;;;5.18;4.05;;;;;;;16.28;100.00;100436.06;5254039;28;20576;-73
2022/10/15 09:44:31;;;;;;;4.97;3.92;;;;;;;16.16;100.00;100433.00;5255961;28;20025;-73
2022/10/15 09:47:14;;;;;;;5.00;3.80;;;;;;;16.28;100.00;100431.59;5254369;28;20032;-73
2022/10/15 09:49:45;;;;;;;4.38;3.13;;;;;;;16.16;100.00;100421.63;5254398;28;20029;-73
2022/10/15 09:52:43;;;;;;;5.35;3.28;;;;;;;16.24;100.00;100424.19;5256522;28;20436;-73
2022/10/15 09:55:53;;;;;;;4.50;3.28;;;;;;;16.40;100.00;100420.59;5240307;28;20132;-73
2022/10/15 09:58:29;;;;;;;5.05;3.58;;;;;;;16.26;100.00;100411.63;5240027;28;20525;-73
2022/10/15 10:01:04;;;;;;;4.38;3.30;;;;;;;16.22;100.00;100413.81;5257460;28;20383;-73
2022/10/15 10:03:35;;;;;;;4.53;3.38;;;;;;;16.25;100.00;100417.91;5258988;28;20028;-72
2022/10/15 10:06:12;;;;;;;3.53;2.72;;;;;;;16.35;100.00;100415.03;5259724;28;20033;-72
2022/10/15 10:08:51;;;;;;;5.07;3.08;;;;;;;16.32;100.00;100416.19;5258811;28;20028;-72
2022/10/15 10:11:24;;;;;;;3.45;2.75;;;;;;;16.28;100.00;100417.56;5259564;28;20028;-72
2022/10/15 10:13:57;;;;;;;;;;;;;;;16.85;100.00;100410.94;5261243;28;20028;-72
2022/10/15 10:16:31;;;;;;;3.72;2.67;;;;;;;16.47;100.00;100408.31;5259177;28;19912;-72
2022/10/15 10:19:12;;;;;;;3.90;2.20;;;;;;;16.49;100.00;100409.78;5259531;28;20032;-72
2022/10/15 10:21:45;;;;;;;4.40;2.30;;;;;;;16.34;100.00;100395.72;5256368;28;20109;-73
2022/10/15 10:24:27;;;;;;;2.42;1.85;;;;;;;16.50;100.00;100411.41;5260120;28;20029;-73
2022/10/15 10:27:00;;;;;;;4.00;1.85;;;;;;;16.45;100.00;100411.16;5258102;28;20511;-73
2022/10/15 10:29:38;;;;;;;3.08;2.00;;;;;;;16.60;100.00;100395.31;5259295;28;20228;-72
2022/10/15 10:32:19;;;;;;;2.90;1.88;;;;;;;16.70;100.00;100408.25;5256068;28;20032;-72
2022/10/15 10:34:50;;;;;;;2.10;1.50;;;;;;;16.65;100.00;100408.81;5257697;28;20489;-72
2022/10/15 10:37:24;;;;;;;3.33;1.48;;;;;;;16.63;100.00;100418.75;5259300;28;20120;-72
2022/10/15 10:39:59;;;;;;;2.90;1.67;;;;;;;16.71;100.00;100421.31;5256882;28;20090;-72
2022/10/15 10:42:33;;;;;;;2.28;1.40;;;;;;;16.75;100.00;100408.59;5259990;28;20451;-72
2022/10/15 10:45:34;;;;;;;2.25;1.58;;;;;;;17.04;100.00;100415.69;5257958;28;20390;-72
2022/10/15 10:48:20;;;;;;;1.95;1.35;;;;;;;16.97;100.00;100417.44;5235039;28;20178;-72
2022/10/15 10:51:06;;;;;;;2.88;1.60;;;;;;;16.99;100.00;100420.72;5257672;28;20119;-72
2022/10/15 10:53:53;;;;;;;3.03;1.67;;;;;;;16.98;100.00;100414.63;5257593;28;20167;-72
2022/10/15 10:56:42;;;;;;;1.88;1.50;;;;;;;17.05;100.00;100413.88;5259830;28;20036;-72
2022/10/15 10:59:31;;;;;;;4.28;1.80;;;;;;;17.16;100.00;100414.25;5259065;28;20035;-72
2022/10/15 11:02:07;;;;;;;3.75;1.58;;;;;;;16.99;100.00;100410.97;5259195;28;20496;-72
2022/10/15 11:04:39;;;;;;;3.10;1.63;;;;;;;17.07;100.00;100399.44;5257431;28;20021;-72
2022/10/15 11:07:25;;;;;;;4.20;2.00;;;;;;;17.23;100.00;100403.72;5259650;28;20033;-72
2022/10/15 11:10:10;;;;;;;2.50;1.77;;;;;;;17.29;100.00;100400.34;5258906;28;20040;-72
2022/10/15 11:13:03;;;;;;;2.63;1.80;;;;;;;17.45;100.00;100400.13;5256412;28;20477;-72
2022/10/15 11:15:42;;;;;;;4.07;2.00;;;;;;;17.50;100.00;100397.78;5257474;28;20071;-72
2022/10/15 11:18:35;;;;;;;5.05;2.10;;;;;;;17.56;100.00;100401.50;5258304;28;20078;-72
2022/10/15 11:21:21;;;;;;;3.28;1.67;;;;;;;17.40;100.00;100396.41;5257355;28;20036;-72
2022/10/15 11:24:15;;;;;;;3.22;1.50;;;;;;;17.56;100.00;100390.91;5257835;28;20465;-72
2022/10/15 11:27:26;;;;;;;3.38;1.60;;;;;;;17.83;100.00;100393.84;5258007;28;20114;-72
2022/10/15 11:30:11;;;;;;;2.50;1.42;;;;;;;17.63;100.00;100397.09;5259335;28;20023;-72
2022/10/15 11:32:52;;;;;;;1.98;1.40;;;;;;;17.66;100.00;100395.91;5257980;28;20036;-72
2022/10/15 11:35:47;;;;;;;2.70;1.35;;;;;;;17.84;100.00;100390.19;5255910;28;20034;-72
2022/10/15 11:38:43;;;;;;;3.22;1.50;;;;;;;17.74;100.00;100401.09;5257892;28;20040;-72
2022/10/15 11:41:36;;;;;;;2.72;1.30;;;;;;;17.75;100.00;100400.09;5258473;28;20048;-72
2022/10/15 11:44:23;;;;;;;2.30;1.30;;;;;;;17.73;100.00;100405.56;5257064;28;20145;-72
2022/10/15 11:47:12;;;;;;;1.90;1.27;;;;;;;17.77;100.00;100402.53;5256225;28;20116;-73